Time;durP1;ratioP1;P1;durP2;ratioP2;P2;SDS_P1;SDS_P2;PMS_P1;PMS_P2;Temp;Humidity;BMP_temperature;BMP_pressure;BME280_temperature;BME280_humidity;BME280_pressure;Samples;Min_cycle;Max_cycle;Signal;HPM_P1;HPM_P2
2023/01/12 00:01:55;;;;;;;16.23;9.17;;;;;;;-141.97;85.54;47818.94;4999654;28;20266;-83
2023/01/12 00:04:20;;;;;;;15.67;8.77;;;;;;;-141.97;85.44;47795.88;4999137;28;20218;-83
2023/01/12 00:06:46;;;;;;;18.00;9.70;;;;;;;-141.97;85.38;47847.75;5015607;28;20167;-82
2023/01/12 00:09:12;;;;;;;14.53;8.60;;;;;;;-141.97;85.36;47845.84;5001211;28;20175;-83
2023/01/12 00:11:38;;;;;;;17.90;9.57;;;;;;;-141.97;84.82;47840.06;5019402;28;20158;-83
2023/01/12 00:14:05;;;;;;;17.27;9.70;;;;;;;-141.97;84.82;47938.09;5021185;28;20661;-83
2023/01/12 00:16:34;;;;;;;17.50;9.40;;;;;;;-141.97;84.58;47849.69;4999736;28;20171;-83
2023/01/12 00:19:21;;;;;;;18.33;9.37;;;;;;;-141.97;84.26;47849.69;5016039;28;20162;-83
2023/01/12 00:22:00;;;;;;;16.30;8.73;;;;;;;-141.97;83.88;47834.31;5015694;28;20265;-83
2023/01/12 00:24:29;;;;;;;17.97;9.47;;;;;;;-141.97;84.29;47830.47;5015231;28;20662;-83
2023/01/12 00:26:56;;;;;;;18.90;9.27;;;;;;;-141.97;83.94;47880.44;5015784;28;20250;-83
2023/01/12 00:29:23;;;;;;;17.23;8.73;;;;;;;-141.97;84.14;47907.34;5016117;28;20170;-83
2023/01/12 00:31:48;;;;;;;16.23;9.03;;;;;;;-141.97;84.20;47832.38;5016455;28;20167;-83
2023/01/12 00:34:14;;;;;;;17.17;9.30;;;;;;;-141.97;84.02;47817.00;5024042;28;20242;-83
2023/01/12 00:36:40;;;;;;;16.00;9.07;;;;;;;-141.97;83.63;47815.09;5023445;28;20170;-82
2023/01/12 00:39:05;;;;;;;16.83;8.17;;;;;;;-141.97;83.39;47855.44;5033783;28;20178;-82
2023/01/12 00:46:59;;;;;;;17.33;8.97;;;;;;;-141.97;84.02;47845.84;5016578;28;20226;-82
2023/01/12 00:49:24;;;;;;;15.27;9.00;;;;;;;-141.97;83.55;47941.94;5016013;28;20187;-82
2023/01/12 00:51:49;;;;;;;16.50;7.73;;;;;;;-141.97;84.00;47815.09;5029382;28;20201;-82
2023/01/12 00:54:15;;;;;;;15.43;8.50;;;;;;;-141.97;83.72;47847.75;5042778;28;20233;-82
2023/01/12 00:56:40;;;;;;;14.00;8.43;;;;;;;-141.97;84.21;47849.69;5040449;28;20170;-82
2023/01/12 00:59:06;;;;;;;18.27;8.70;;;;;;;-141.97;83.32;47815.09;5036600;28;20653;-82
2023/01/12 01:01:33;;;;;;;19.47;8.87;;;;;;;-141.97;83.68;47838.16;5048832;28;20185;-80
2023/01/12 01:03:58;;;;;;;13.60;8.00;;;;;;;-141.97;83.42;47830.47;5048216;28;20197;-82
2023/01/12 01:06:23;;;;;;;16.07;8.17;;;;;;;-141.97;83.74;47792.03;5035499;28;20162;-82
2023/01/12 01:08:49;;;;;;;14.17;7.27;;;;;;;-141.97;83.28;47724.75;5034782;28;20170;-82
2023/01/12 01:11:15;;;;;;;14.73;8.13;;;;;;;-141.97;83.31;47865.06;5034695;28;20253;-82
2023/01/12 01:13:44;;;;;;;16.53;8.93;;;;;;;-141.97;83.54;47865.06;5034423;28;20165;-82
2023/01/12 01:16:12;;;;;;;16.27;8.47;;;;;;;-141.97;83.77;47817.00;5037049;28;20158;-82
2023/01/12 01:18:38;;;;;;;16.57;8.67;;;;;;;-141.97;83.14;47838.16;5034859;28;20174;-82
2023/01/12 01:21:03;;;;;;;15.33;7.70;;;;;;;-141.97;83.22;47851.59;5034270;28;20170;-82
2023/01/12 01:23:32;;;;;;;16.10;8.70;;;;;;;-141.97;83.17;47890.06;5033710;28;20209;-82
2023/01/12 01:26:06;;;;;;;16.23;9.07;;;;;;;-141.97;83.29;47828.53;5034309;28;20631;-82
2023/01/12 01:28:31;;;;;;;18.43;8.57;;;;;;;-141.97;83.31;47836.22;5034108;28;20670;-82
2023/01/12 01:31:10;;;;;;;17.13;9.17;;;;;;;-141.97;82.94;47840.06;5033687;28;20205;-82
2023/01/12 01:33:36;;;;;;;17.63;9.80;;;;;;;-141.97;82.74;47868.91;5033724;28;20188;-83
2023/01/12 01:36:02;;;;;;;17.20;9.33;;;;;;;-141.97;83.22;47805.47;5034279;28;20162;-82
2023/01/12 01:38:28;;;;;;;16.13;8.63;;;;;;;-141.97;83.25;47857.38;5015969;28;20170;-83
2023/01/12 01:40:54;;;;;;;14.43;8.23;;;;;;;-141.97;82.25;47845.84;5033821;28;20241;-83
2023/01/12 01:43:22;;;;;;;16.37;9.17;;;;;;;-141.97;82.65;47855.44;5033830;28;20196;-83
2023/01/12 01:46:00;;;;;;;16.03;8.47;;;;;;;-141.97;82.70;47834.31;5034365;28;20626;-82
2023/01/12 01:48:29;;;;;;;15.13;8.97;;;;;;;-141.97;82.64;47866.97;5033652;28;20166;-82
2023/01/12 01:51:03;;;;;;;13.17;7.70;;;;;;;-141.97;82.55;47853.53;5033905;28;20187;-82
2023/01/12 01:53:32;;;;;;;14.23;8.07;;;;;;;-141.97;82.84;47799.72;5033663;28;20233;-83
2023/01/12 01:56:09;;;;;;;14.57;8.30;;;;;;;-141.97;83.88;47824.69;5033573;28;20618;-83
2023/01/12 01:58:46;;;;;;;14.07;7.90;;;;;;;-141.97;85.31;47843.91;5033779;28;20409;-82
2023/01/12 02:01:12;;;;;;;16.90;8.73;;;;;;;-141.97;86.44;47840.06;5037335;28;20415;-83
2023/01/12 02:03:39;;;;;;;14.93;8.00;;;;;;;-141.97;87.83;47815.09;5033343;28;20186;-82
2023/01/12 02:06:06;;;;;;;14.87;8.20;;;;;;;-141.97;88.95;47838.16;5033282;28;20619;-82
2023/01/12 02:08:50;;;;;;;13.80;7.80;;;;;;;-141.97;89.99;47888.13;5015120;28;20963;-83
2023/01/12 02:16:53;;;;;;;15.27;8.30;;;;;;;-141.97;92.23;47797.78;5032868;28;20408;-83
2023/01/12 02:19:49;;;;;;;15.73;8.67;;;;;;;-141.97;92.62;47843.91;5033849;28;20408;-83
2023/01/12 02:22:27;;;;;;;17.07;8.50;;;;;;;-141.97;92.68;47861.22;5032367;28;20397;-82
2023/01/12 02:25:17;;;;;;;14.03;7.47;;;;;;;-141.97;92.45;47853.53;5032631;28;20448;-82
2023/01/12 02:27:48;;;;;;;15.87;7.87;;;;;;;-141.97;92.13;47845.84;5032711;28;20887;-82
2023/01/12 02:30:38;;;;;;;13.17;7.03;;;;;;;-141.97;92.10;47861.22;5048946;28;20416;-82
2023/01/12 02:33:09;;;;;;;14.13;7.67;;;;;;;-141.97;92.18;47853.53;5032828;28;20405;-82
2023/01/12 02:35:51;;;;;;;12.63;7.57;;;;;;;-141.97;92.04;47824.69;5032319;28;20790;-82
2023/01/12 02:38:49;;;;;;;14.53;7.73;;;;;;;-141.97;91.95;47865.06;5032600;28;20425;-83
2023/01/12 02:42:40;;;;;;;13.63;7.27;;;;;;;-141.97;91.71;47843.91;5032855;28;20416;-83
2023/01/12 02:44:35;;;;;;;15.03;6.93;;;;;;;-141.97;91.40;47818.94;5031384;28;20464;-85
2023/01/12 02:47:07;;;;;;;14.60;7.63;;;;;;;-141.97;91.29;47811.25;5031316;28;20987;-83
2023/01/12 02:49:40;;;;;;;13.10;7.30;;;;;;;-141.97;91.51;47849.69;5037259;28;20405;-84
2023/01/12 02:52:12;;;;;;;13.47;7.13;;;;;;;-141.97;91.68;47857.38;5031945;28;20409;-84
2023/01/12 02:54:39;;;;;;;13.00;6.50;;;;;;;-141.97;92.01;47897.75;5032074;28;20476;-84
2023/01/12 02:57:07;;;;;;;10.90;6.60;;;;;;;-141.97;92.44;47868.91;5032329;28;20401;-84
2023/01/12 02:59:36;;;;;;;11.63;6.20;;;;;;;-141.97;92.86;47876.59;5036063;28;20916;-84
2023/01/12 03:02:11;;;;;;;12.10;7.00;;;;;;;-141.97;93.21;47803.56;5032141;28;20475;-84
2023/01/12 03:04:38;;;;;;;12.73;6.57;;;;;;;-141.97;92.58;47847.75;5014178;28;20452;-84
2023/01/12 03:07:03;;;;;;;12.47;6.63;;;;;;;-141.97;92.33;47836.22;5032080;28;20801;-83
2023/01/12 03:09:37;;;;;;;11.03;6.60;;;;;;;-141.97;92.33;47868.91;5031975;28;20393;-82
2023/01/12 03:12:07;;;;;;;13.30;6.47;;;;;;;-141.97;92.42;47826.63;5031934;28;20190;-83
2023/01/12 03:14:36;;;;;;;12.63;6.40;;;;;;;-141.97;91.89;47755.50;5014054;28;20400;-83
2023/01/12 03:17:10;;;;;;;11.67;6.60;;;;;;;-141.97;91.58;47905.44;5031656;28;20412;-82
2023/01/12 03:19:40;;;;;;;11.10;6.67;;;;;;;-141.97;91.56;47874.69;5031605;28;20400;-83
2023/01/12 03:22:10;;;;;;;10.83;6.40;;;;;;;-141.97;91.46;47882.38;5013803;28;20412;-83
2023/01/12 03:25:01;;;;;;;12.03;6.77;;;;;;;-141.97;91.17;47826.63;5031606;28;20455;-82
2023/01/12 03:27:37;;;;;;;11.60;6.27;;;;;;;-141.97;90.82;47868.91;5031961;28;20397;-85
2023/01/12 03:30:09;;;;;;;12.30;6.67;;;;;;;-141.97;91.29;47809.31;5031692;28;20397;-83
2023/01/12 03:32:35;;;;;;;9.73;6.33;;;;;;;-141.97;91.07;47878.53;5031576;28;20495;-85
2023/01/12 03:35:01;;;;;;;11.93;6.60;;;;;;;-141.97;91.21;47820.84;5031761;28;20412;-83
2023/01/12 03:37:31;;;;;;;12.07;6.87;;;;;;;-141.97;91.08;47857.38;5031847;28;20220;-84
2023/01/12 03:40:07;;;;;;;13.27;6.90;;;;;;;-141.97;91.96;47851.59;5038462;28;20880;-83
2023/01/12 03:42:35;;;;;;;10.97;6.70;;;;;;;-141.97;93.71;47872.75;5031780;28;20400;-83
2023/01/12 03:45:09;;;;;;;12.33;6.93;;;;;;;-141.97;95.02;47859.28;5032731;28;20412;-83
2023/01/12 03:47:35;;;;;;;13.47;7.10;;;;;;;-141.97;96.29;47776.63;5038396;28;20408;-83
2023/01/12 03:50:08;;;;;;;12.13;6.30;;;;;;;-141.97;97.06;47843.91;5038561;28;20966;-83
2023/01/12 03:52:37;;;;;;;11.50;6.90;;;;;;;-141.97;97.26;47776.63;5038207;28;20511;-83
2023/01/12 03:55:06;;;;;;;12.63;6.70;;;;;;;-141.97;97.82;47861.22;5038312;28;20472;-84
2023/01/12 03:57:33;;;;;;;12.53;6.20;;;;;;;-141.97;98.04;47813.16;5054758;28;20420;-82
2023/01/12 04:00:01;;;;;;;12.23;6.63;;;;;;;-141.97;98.86;47768.94;5040534;28;20434;-84
2023/01/12 04:02:27;;;;;;;10.70;6.03;;;;;;;-141.97;98.90;47770.88;5039018;28;20913;-83
2023/01/12 04:04:52;;;;;;;9.33;5.60;;;;;;;-141.97;99.21;47938.09;5020489;28;20578;-83
2023/01/12 04:07:18;;;;;;;10.70;6.13;;;;;;;-141.97;99.50;47861.22;5020609;28;20175;-83
2023/01/12 04:09:43;;;;;;;11.30;6.53;;;;;;;-141.97;99.95;47843.91;5038058;28;20615;-83
2023/01/12 04:12:11;;;;;;;11.37;6.40;;;;;;;-141.97;99.99;47753.56;5041983;28;20162;-83
2023/01/12 04:14:41;;;;;;;11.83;6.27;;;;;;;-141.97;100.00;47853.53;5020231;28;20162;-84
2023/01/12 04:17:09;;;;;;;12.20;6.63;;;;;;;-141.97;100.00;47757.41;5020100;28;20440;-84
2023/01/12 04:19:34;;;;;;;10.57;6.03;;;;;;;-141.97;100.00;47786.25;5037725;28;20409;-83
2023/01/12 04:24:44;;;;;;;13.57;7.33;;;;;;;-141.97;99.70;47870.81;5037920;28;20259;-84
2023/01/12 04:27:10;;;;;;;41.33;16.67;;;;;;;-141.97;99.02;47861.22;5038120;28;20401;-84
2023/01/12 04:29:35;;;;;;;44.17;17.40;;;;;;;-141.97;98.68;47849.69;5036634;28;20235;-83
2023/01/12 04:32:01;;;;;;;26.90;11.70;;;;;;;-141.97;98.39;47826.63;5037911;28;20253;-84
2023/01/12 04:34:26;;;;;;;22.00;10.33;;;;;;;-141.97;98.25;47934.25;5040491;28;20171;-83
2023/01/12 04:36:51;;;;;;;16.40;8.00;;;;;;;-141.97;97.42;47845.84;5052315;28;20184;-84
2023/01/12 04:39:17;;;;;;;17.63;8.50;;;;;;;-141.97;96.87;47778.56;5054869;28;20173;-84
2023/01/12 04:41:42;;;;;;;13.20;7.20;;;;;;;-141.97;96.52;47813.16;5049961;28;20166;-84
2023/01/12 04:44:08;;;;;;;12.17;7.00;;;;;;;-141.97;95.78;47815.09;5044368;28;20186;-84
2023/01/12 04:46:33;;;;;;;11.37;6.43;;;;;;;-141.97;94.81;47918.88;5042898;28;20198;-84
2023/01/12 04:48:58;;;;;;;11.10;6.43;;;;;;;-141.97;94.44;47945.81;5039083;28;20194;-85
2023/01/12 04:51:24;;;;;;;10.73;6.30;;;;;;;-141.97;94.35;47897.75;5039847;28;20228;-85
2023/01/12 04:53:50;;;;;;;10.70;6.10;;;;;;;-141.97;93.82;47880.44;5041826;28;20233;-84
2023/01/12 04:56:16;;;;;;;12.00;6.00;;;;;;;-141.97;93.15;47824.69;5042237;28;20161;-85
2023/01/12 04:58:42;;;;;;;10.63;5.93;;;;;;;-141.97;93.09;47891.97;5041232;28;20416;-84
2023/01/12 05:01:13;;;;;;;10.13;5.87;;;;;;;-141.97;92.88;47849.69;5040900;28;20172;-85
2023/01/12 05:03:39;;;;;;;10.60;6.20;;;;;;;-141.97;92.59;47838.16;5041838;28;20249;-85
2023/01/12 05:06:05;;;;;;;11.60;5.87;;;;;;;-141.97;92.08;47849.69;5040612;28;20455;-85
2023/01/12 05:11:15;;;;;;;9.73;5.90;;;;;;;-141.97;91.07;47899.66;5036340;28;20178;-84
2023/01/12 05:13:40;;;;;;;10.20;5.70;;;;;;;-141.97;90.81;47828.53;5035611;28;20809;-84
2023/01/12 05:16:11;;;;;;;10.93;6.00;;;;;;;-141.97;91.08;47872.75;5034945;28;20161;-83
2023/01/12 05:18:36;;;;;;;11.10;6.03;;;;;;;-141.97;90.24;47855.44;5016869;28;20554;-84
2023/01/12 05:21:03;;;;;;;11.50;6.27;;;;;;;-141.97;90.33;47811.25;5034337;28;20409;-84
2023/01/12 05:23:28;;;;;;;9.67;5.30;;;;;;;-141.97;90.17;47842.00;5017429;28;20202;-82
2023/01/12 05:25:58;;;;;;;12.03;6.10;;;;;;;-141.97;90.91;47859.28;5035389;28;20216;-83
2023/01/12 05:28:23;;;;;;;12.70;6.50;;;;;;;-141.97;91.14;47768.94;5034497;28;20543;-83
2023/01/12 05:30:48;;;;;;;12.13;5.70;;;;;;;-141.97;91.23;47826.63;5034878;28;20420;-84
2023/01/12 05:33:15;;;;;;;12.90;6.73;;;;;;;-141.97;91.22;47926.56;5016962;28;20291;-84
2023/01/12 05:35:40;;;;;;;16.87;9.20;;;;;;;-141.97;90.90;47824.69;5016122;28;20236;-84
2023/01/12 05:38:06;;;;;;;27.07;16.43;;;;;;;-141.97;91.54;47793.94;5033932;28;20405;-86
2023/01/12 05:40:31;;;;;;;27.50;16.07;;;;;;;-141.97;91.32;47857.38;5033835;28;20708;-84
2023/01/12 05:45:40;;;;;;;49.03;23.47;;;;;;;-141.97;90.83;47845.84;5034846;28;20212;-84
2023/01/12 05:48:08;;;;;;;36.50;18.87;;;;;;;-141.97;90.58;47890.06;5034877;28;20409;-84
2023/01/12 05:50:33;;;;;;;27.80;13.00;;;;;;;-141.97;90.04;47863.13;5034091;28;20166;-84
2023/01/12 05:52:59;;;;;;;16.73;8.80;;;;;;;-141.97;89.61;47809.31;5016523;28;20810;-84
2023/01/12 05:55:24;;;;;;;13.57;7.57;;;;;;;-141.97;89.40;47861.22;5034462;28;20166;-84
2023/01/12 05:57:49;;;;;;;12.73;6.90;;;;;;;-141.97;89.50;47888.13;5033986;28;20197;-83
2023/01/12 06:00:16;;;;;;;12.63;6.70;;;;;;;-141.97;89.83;47955.41;5034186;28;20189;-84
2023/01/12 06:02:41;;;;;;;14.97;8.50;;;;;;;-141.97;90.01;47765.09;5015755;28;20170;-83
2023/01/12 06:05:08;;;;;;;14.30;8.17;;;;;;;-141.97;89.96;47840.06;5015742;28;20757;-85
2023/01/12 06:07:34;;;;;;;32.37;17.63;;;;;;;-141.97;89.21;47859.28;5014424;28;20621;-87
2023/01/12 06:09:59;;;;;;;23.17;13.10;;;;;;;-141.97;89.15;47890.06;5014839;28;20549;-85
2023/01/12 06:15:09;;;;;;;16.23;9.13;;;;;;;-141.97;88.77;47845.84;5032114;28;20181;-84
2023/01/12 06:17:34;;;;;;;16.13;7.97;;;;;;;-141.97;88.92;47836.22;5031956;28;20416;-86
2023/01/12 06:19:59;;;;;;;14.77;7.80;;;;;;;-141.97;89.11;47859.28;5032491;28;20183;-84
2023/01/12 06:22:26;;;;;;;20.33;10.47;;;;;;;-141.97;89.21;47842.00;5032686;28;20158;-84
2023/01/12 06:24:52;;;;;;;17.43;10.17;;;;;;;-141.97;88.84;47818.94;5032316;28;20262;-83
2023/01/12 06:27:18;;;;;;;15.83;8.97;;;;;;;-141.97;88.70;47863.13;5032083;28;20421;-84
2023/01/12 06:29:43;;;;;;;17.47;9.97;;;;;;;-141.97;88.24;47826.63;5032506;28;20404;-84
2023/01/12 06:32:09;;;;;;;23.63;14.10;;;;;;;-141.97;88.65;47818.94;5014759;28;20292;-84
2023/01/12 06:34:34;;;;;;;15.40;8.13;;;;;;;-141.97;87.79;47784.34;5032527;28;20886;-84
2023/01/12 06:37:01;;;;;;;14.57;7.47;;;;;;;-141.97;88.00;47759.34;5031914;28;20614;-84
2023/01/12 06:39:30;;;;;;;15.47;8.90;;;;;;;-141.97;87.07;47953.50;5014481;28;20287;-85
2023/01/12 06:44:39;;;;;;;35.83;16.87;;;;;;;-141.97;87.01;47941.94;5031228;28;20215;-85
2023/01/12 06:47:05;;;;;;;20.47;10.93;;;;;;;-141.97;87.44;47868.91;5031881;28;20260;-85
2023/01/12 06:49:30;;;;;;;13.97;7.63;;;;;;;-141.97;87.48;47818.94;5032046;28;20170;-83
2023/01/12 06:51:55;;;;;;;15.97;7.73;;;;;;;-141.97;87.95;47863.13;5031919;28;20173;-85
2023/01/12 06:54:21;;;;;;;14.30;7.63;;;;;;;-141.97;88.42;47807.41;5036803;28;20233;-83
2023/01/12 06:56:46;;;;;;;12.40;7.10;;;;;;;-141.97;87.69;47863.13;5042547;28;20680;-84
2023/01/12 06:59:12;;;;;;;15.60;8.60;;;;;;;-141.97;88.05;47866.97;5032525;28;20241;-84
2023/01/12 07:01:38;;;;;;;12.07;7.03;;;;;;;-141.97;87.53;47836.22;5032072;28;20276;-84
2023/01/12 07:04:04;;;;;;;15.80;8.40;;;;;;;-141.97;87.85;47838.16;5030559;28;20568;-83
2023/01/12 07:06:29;;;;;;;14.23;8.10;;;;;;;-141.97;87.76;47843.91;5031905;28;20180;-83
2023/01/12 07:08:55;;;;;;;22.17;12.47;;;;;;;-141.97;87.94;47857.38;5031541;28;20224;-84
2023/01/12 07:11:20;;;;;;;16.67;9.77;;;;;;;-141.97;88.18;47872.75;5032014;28;20241;-84
2023/01/12 07:13:45;;;;;;;15.63;8.40;;;;;;;-141.97;87.85;47855.44;5033649;28;20173;-83
2023/01/12 07:16:11;;;;;;;14.87;7.60;;;;;;;-141.97;87.03;47817.00;5049305;28;20184;-84
2023/01/12 07:18:37;;;;;;;15.67;8.70;;;;;;;-141.97;87.58;47876.59;5052367;28;20655;-84
2023/01/12 07:21:06;;;;;;;19.00;9.70;;;;;;;-141.97;87.75;47853.53;5051392;28;20579;-84
2023/01/12 07:23:32;;;;;;;16.27;8.07;;;;;;;-141.97;87.63;47842.00;5051165;28;20196;-84
2023/01/12 07:25:57;;;;;;;17.23;8.63;;;;;;;-141.97;87.93;47868.91;5050987;28;20169;-83
2023/01/12 07:28:23;;;;;;;15.37;7.10;;;;;;;-141.97;86.89;47834.31;5033513;28;20199;-85
2023/01/12 07:30:48;;;;;;;13.50;7.40;;;;;;;-141.97;86.70;47770.88;5051512;28;20248;-84
2023/01/12 07:33:14;;;;;;;17.63;9.20;;;;;;;-141.97;86.59;47849.69;5051415;28;20626;-84
2023/01/12 07:35:40;;;;;;;15.97;7.97;;;;;;;-141.97;86.19;47824.69;5051165;28;20629;-83
2023/01/12 07:38:06;;;;;;;14.47;8.27;;;;;;;-141.97;86.49;47882.38;5050981;28;20160;-83
2023/01/12 07:40:32;;;;;;;11.63;6.60;;;;;;;-141.97;85.91;47765.09;5051462;28;20165;-84
2023/01/12 07:43:05;;;;;;;12.27;5.97;;;;;;;-141.97;86.55;47855.44;5051344;28;20543;-84
2023/01/12 07:45:32;;;;;;;14.20;8.60;;;;;;;-141.97;86.06;47868.91;5033805;28;20165;-83
2023/01/12 07:47:57;;;;;;;19.03;12.43;;;;;;;-141.97;85.55;47799.72;5040632;28;20251;-83
2023/01/12 07:50:24;;;;;;;16.67;9.60;;;;;;;-141.97;85.46;47878.53;5052460;28;20169;-84
2023/01/12 07:52:50;;;;;;;20.03;11.83;;;;;;;-141.97;84.57;47842.00;5053569;28;20189;-83
2023/01/12 07:55:17;;;;;;;16.67;8.03;;;;;;;-141.97;85.01;47824.69;5052404;28;20254;-84
2023/01/12 07:57:52;;;;;;;14.67;9.30;;;;;;;-141.97;84.70;47784.34;5019239;28;20197;-84
2023/01/12 08:00:21;;;;;;;17.40;9.80;;;;;;;-141.97;84.49;47780.47;5033440;28;20242;-83
2023/01/12 08:02:47;;;;;;;18.07;10.67;;;;;;;-141.97;83.31;47813.16;5033815;28;20165;-84
2023/01/12 08:05:12;;;;;;;14.23;7.50;;;;;;;-141.97;83.31;47815.09;5034018;28;20166;-83
2023/01/12 08:07:38;;;;;;;12.00;6.57;;;;;;;-141.97;84.08;47790.09;5033665;28;20170;-83
2023/01/12 08:10:04;;;;;;;14.77;7.93;;;;;;;-141.97;83.80;47830.47;5031882;28;20166;-84
2023/01/12 08:12:30;;;;;;;13.43;7.00;;;;;;;-141.97;84.28;47868.91;5034290;28;20202;-83
2023/01/12 08:14:55;;;;;;;17.13;9.90;;;;;;;-141.97;83.83;47738.19;5033621;28;20189;-85
2023/01/12 08:17:22;;;;;;;11.53;6.27;;;;;;;-141.97;83.90;47817.00;5016356;28;20180;-84
2023/01/12 08:20:02;;;;;;;11.70;6.37;;;;;;;-141.97;83.44;47818.94;5033911;28;20177;-84
2023/01/12 08:22:34;;;;;;;12.43;6.90;;;;;;;-141.97;83.81;47811.25;5015343;28;20170;-82
2023/01/12 08:25:09;;;;;;;13.27;6.33;;;;;;;-141.97;83.29;47834.31;5042852;28;20198;-82
2023/01/12 08:27:38;;;;;;;13.63;7.40;;;;;;;-141.97;83.49;47830.47;5019758;28;20506;-83
2023/01/12 08:30:07;;;;;;;11.67;6.03;;;;;;;-141.97;82.79;47874.69;5034601;28;20173;-82
2023/01/12 08:32:34;;;;;;;13.10;6.53;;;;;;;-141.97;82.17;47853.53;5016245;28;20259;-83
2023/01/12 08:35:02;;;;;;;13.50;7.73;;;;;;;-141.97;82.49;47801.63;5017805;28;20170;-83
2023/01/12 08:37:28;;;;;;;10.47;6.13;;;;;;;-141.97;81.85;47861.22;5036633;28;20181;-83
2023/01/12 08:39:54;;;;;;;13.83;7.83;;;;;;;-141.97;80.68;47853.53;5042507;28;20166;-83
2023/01/12 08:42:22;;;;;;;12.93;6.20;;;;;;;-141.97;79.71;47913.13;5039134;28;20202;-83
2023/01/12 08:44:48;;;;;;;10.80;6.40;;;;;;;-141.97;79.90;47818.94;5055319;28;20186;-84
2023/01/12 08:47:18;;;;;;;53.53;27.03;;;;;;;-141.97;80.10;47840.06;5048372;28;20181;-83
2023/01/12 08:49:45;;;;;;;16.83;7.90;;;;;;;-141.97;79.54;47832.38;5038409;28;20173;-83
2023/01/12 08:52:11;;;;;;;26.33;16.27;;;;;;;-141.97;78.84;47911.19;5037250;28;20154;-83
2023/01/12 08:54:36;;;;;;;24.67;12.93;;;;;;;-141.97;79.20;47845.84;5036034;28;20221;-83
2023/01/12 08:57:01;;;;;;;36.90;17.27;;;;;;;-141.97;78.61;47788.19;5038030;28;20240;-84
2023/01/12 08:59:27;;;;;;;44.10;27.97;;;;;;;-141.97;76.71;47830.47;5036553;28;20251;-84
2023/01/12 09:01:52;;;;;;;24.33;13.13;;;;;;;-141.97;75.88;47830.47;5029700;28;20207;-83
2023/01/12 09:04:17;;;;;;;30.70;17.13;;;;;;;-141.97;76.41;47826.63;5037588;28;20284;-83
2023/01/12 09:06:44;;;;;;;61.20;36.07;;;;;;;-141.97;76.28;47868.91;5020010;28;20185;-83
2023/01/12 09:09:12;;;;;;;42.00;20.93;;;;;;;-141.97;74.62;47834.31;5035441;28;20163;-85
2023/01/12 09:11:39;;;;;;;17.60;9.63;;;;;;;-141.97;75.59;47836.22;5034992;28;20166;-84
2023/01/12 09:14:05;;;;;;;26.70;14.33;;;;;;;-141.97;75.44;47890.06;5036565;28;20158;-84
2023/01/12 09:16:32;;;;;;;27.37;14.03;;;;;;;-141.97;74.66;47842.00;5035524;28;20563;-82
2023/01/12 09:18:58;;;;;;;46.13;23.30;;;;;;;-141.97;74.74;47757.41;5016254;28;20253;-83
2023/01/12 09:21:25;;;;;;;25.60;12.80;;;;;;;-141.97;74.14;47830.47;5034434;28;20621;-83
2023/01/12 09:23:52;;;;;;;33.63;17.33;;;;;;;-141.97;74.22;47851.59;5035239;28;20185;-83
2023/01/12 09:26:20;;;;;;;22.83;10.47;;;;;;;-141.97;74.53;47911.19;5034035;28;20613;-83
2023/01/12 09:28:46;;;;;;;13.33;7.10;;;;;;;-141.97;75.44;47865.06;5033242;28;20215;-83
2023/01/12 09:31:17;;;;;;;30.47;17.70;;;;;;;-141.97;74.55;47855.44;5033384;28;20181;-83
2023/01/12 09:33:43;;;;;;;32.73;19.60;;;;;;;-141.97;73.60;47842.00;5034420;28;20288;-84
2023/01/12 09:36:11;;;;;;;29.83;19.63;;;;;;;-141.97;73.68;47734.34;5034567;28;20165;-83
2023/01/12 09:38:38;;;;;;;14.73;8.03;;;;;;;-141.97;72.96;47868.91;5034550;28;20241;-83
2023/01/12 09:41:16;;;;;;;19.70;11.07;;;;;;;-141.97;73.42;47836.22;5034141;28;20602;-82
2023/01/12 09:49:25;;;;;;;32.10;15.30;;;;;;;-141.97;73.19;47878.53;5037845;28;20696;-82
2023/01/12 09:51:58;;;;;;;21.80;10.07;;;;;;;-141.97;73.59;47855.44;5033621;28;20180;-83
2023/01/12 09:54:23;;;;;;;46.80;23.73;;;;;;;-141.97;73.48;47953.50;5015868;28;20277;-83
2023/01/12 09:57:19;;;;;;;38.33;21.10;;;;;;;-141.97;71.83;47866.97;5035207;28;20193;-83
2023/01/12 10:00:00;;;;;;;52.17;27.47;;;;;;;-141.97;71.14;47840.06;5035426;28;20633;-83
2023/01/12 10:02:26;;;;;;;29.23;15.00;;;;;;;-141.97;70.30;47818.94;5033414;28;20185;-83
2023/01/12 10:04:54;;;;;;;30.77;15.33;;;;;;;-141.97;70.53;47826.63;5032552;28;20218;-83
2023/01/12 10:07:20;;;;;;;32.90;15.80;;;;;;;-141.97;69.53;47799.72;5033193;28;20248;-84
2023/01/12 10:09:45;;;;;;;18.23;11.47;;;;;;;-141.97;69.78;47865.06;5022843;28;20317;-82
2023/01/12 10:12:29;;;;;;;38.17;22.73;;;;;;;-141.97;69.57;47840.06;5031910;28;20181;-82
2023/01/12 10:15:03;;;;;;;28.07;16.50;;;;;;;-141.97;69.48;47820.84;5033137;28;20158;-82
2023/01/12 10:18:13;;;;;;;16.17;8.17;;;;;;;-141.97;70.31;47853.53;5033332;28;20161;-82
2023/01/12 10:20:41;;;;;;;18.67;10.10;;;;;;;-141.97;69.20;47945.81;4936789;28;20184;-82
2023/01/12 10:23:07;;;;;;;18.90;10.47;;;;;;;-141.97;69.37;47795.88;4952911;29;20208;-82
2023/01/12 10:25:50;;;;;;;22.30;11.10;;;;;;;-141.97;69.38;47863.13;4952932;29;20231;-82
2023/01/12 10:28:26;;;;;;;22.33;11.30;;;;;;;-141.97;70.05;47874.69;4952170;29;20176;-84
2023/01/12 10:30:52;;;;;;;15.97;8.20;;;;;;;-141.97;69.34;47857.38;4952132;28;20183;-82
2023/01/12 10:33:20;;;;;;;17.83;8.67;;;;;;;-141.97;68.15;47830.47;4952130;29;20604;-82
2023/01/12 10:35:56;;;;;;;29.07;13.17;;;;;;;-141.97;67.99;47824.69;4951923;29;20173;-82
2023/01/12 10:38:33;;;;;;;12.43;7.87;;;;;;;-141.97;67.75;47830.47;4952299;29;20231;-83
2023/01/12 10:41:17;;;;;;;12.57;6.67;;;;;;;-141.97;67.93;47815.09;4951459;28;20184;-83
2023/01/12 10:43:44;;;;;;;13.43;6.57;;;;;;;-141.97;68.16;47868.91;4952105;28;20205;-83
2023/01/12 10:46:10;;;;;;;25.30;13.50;;;;;;;-141.97;67.66;47807.41;4951839;28;20252;-83
2023/01/12 10:48:42;;;;;;;12.43;7.27;;;;;;;-141.97;67.48;47849.69;4951768;29;20653;-83
2023/01/12 10:51:23;;;;;;;35.33;21.80;;;;;;;-141.97;66.80;47849.69;4980939;28;20277;-83
2023/01/12 10:54:00;;;;;;;32.60;19.90;;;;;;;-141.97;66.53;47847.75;5031731;28;20230;-83
2023/01/12 10:56:38;;;;;;;22.13;12.27;;;;;;;-141.97;65.49;47815.09;5031250;28;20245;-83
2023/01/12 10:59:16;;;;;;;24.60;13.70;;;;;;;-141.97;65.62;47840.06;5031816;28;20211;-83
2023/01/12 11:01:51;;;;;;;21.87;12.20;;;;;;;-141.97;66.52;47834.31;5032818;28;20220;-83
2023/01/12 11:04:23;;;;;;;42.17;22.70;;;;;;;-141.97;66.30;47845.84;5033711;28;20185;-83
2023/01/12 11:07:11;;;;;;;21.47;12.13;;;;;;;-141.97;67.41;47861.22;5032876;28;20181;-83
2023/01/12 11:09:37;;;;;;;22.77;13.60;;;;;;;-141.97;66.64;47822.78;5021862;28;20222;-82
2023/01/12 11:12:17;;;;;;;22.53;12.50;;;;;;;-141.97;66.58;47857.38;5031316;28;20174;-82
2023/01/12 11:14:42;;;;;;;43.50;19.87;;;;;;;-141.97;65.66;47840.06;5031405;28;20166;-82
2023/01/12 11:17:27;;;;;;;47.60;23.07;;;;;;;-141.97;66.11;47820.84;5031807;28;20167;-82
2023/01/12 11:19:54;;;;;;;53.40;26.90;;;;;;;-141.97;66.39;47753.56;5027641;28;20863;-82
2023/01/12 11:22:26;;;;;;;47.07;23.90;;;;;;;-141.97;66.48;47876.59;5010258;28;20183;-83
2023/01/12 11:25:01;;;;;;;51.03;26.40;;;;;;;-141.97;66.39;47849.69;5011907;28;20190;-83
2023/01/12 11:27:42;;;;;;;64.97;31.40;;;;;;;-141.97;63.88;47843.91;5028881;28;20717;-83
2023/01/12 11:30:17;;;;;;;30.77;18.67;;;;;;;-141.97;64.75;47830.47;5031690;28;20157;-83
2023/01/12 11:32:53;;;;;;;24.50;12.17;;;;;;;-141.97;64.31;47834.31;5031573;28;20165;-82
2023/01/12 11:35:30;;;;;;;63.77;28.23;;;;;;;-141.97;64.49;47857.38;5031332;28;20194;-82
2023/01/12 11:38:00;;;;;;;54.17;28.47;;;;;;;-141.97;64.37;47830.47;5031092;28;20173;-83
2023/01/12 11:40:33;;;;;;;99.90;38.83;;;;;;;-141.97;63.76;47834.31;5032048;28;20166;-83
2023/01/12 11:46:31;;;;;;;34.47;18.13;;;;;;;-141.97;63.69;47842.00;4932409;29;20831;-83
2023/01/12 11:49:11;;;;;;;38.90;21.33;;;;;;;-141.97;64.00;47826.63;4931718;29;20173;-84
2023/01/12 11:51:38;;;;;;;25.17;15.00;;;;;;;-141.97;64.89;47861.22;4932237;29;20192;-83